Time;durP1;ratioP1;P1;durP2;ratioP2;P2;SDS_P1;SDS_P2;PMS_P1;PMS_P2;Temp;Humidity;BMP_temperature;BMP_pressure;BME280_temperature;BME280_humidity;BME280_pressure;Samples;Min_cycle;Max_cycle;Signal;HPM_P1;HPM_P2
2022/09/29 00:00:12;;;;;;;8.30;4.15;;;9.40;99.90;;;;;;4148960;28;20192;-87
2022/09/29 00:02:13;;;;;;;9.67;3.90;;;9.40;99.90;;;;;;4167632;28;20176;-87
2022/09/29 00:04:13;;;;;;;10.60;4.10;;;9.40;99.90;;;;;;4167374;28;20247;-87
2022/09/29 00:06:17;;;;;;;6.63;3.67;;;9.30;99.90;;;;;;4151290;28;20601;-87
2022/09/29 00:08:19;;;;;;;8.37;3.57;;;9.40;99.90;;;;;;4151201;28;20181;-88
2022/09/29 00:10:19;;;;;;;8.80;4.27;;;9.40;99.90;;;;;;4150921;28;20197;-88
2022/09/29 00:12:20;;;;;;;11.68;3.65;;;9.30;99.90;;;;;;4150936;28;20267;-87
2022/09/29 00:14:22;;;;;;;9.10;3.90;;;9.20;99.90;;;;;;4150871;28;20184;-87
2022/09/29 00:16:22;;;;;;;7.93;4.00;;;9.20;99.90;;;;;;4167757;28;20168;-87
2022/09/29 00:18:23;;;;;;;6.20;3.57;;;9.20;99.90;;;;;;4151100;28;20195;-87
2022/09/29 00:20:24;;;;;;;7.10;4.07;;;9.20;99.90;;;;;;4167483;28;20712;-87
2022/09/29 00:22:24;;;;;;;8.88;3.95;;;9.20;99.90;;;;;;4151087;28;20183;-87
2022/09/29 00:24:25;;;;;;;9.00;3.43;;;9.10;99.90;;;;;;4151013;28;20713;-88
2022/09/29 00:26:26;;;;;;;8.27;4.10;;;9.10;99.90;;;;;;4150846;28;20585;-87
2022/09/29 00:28:28;;;;;;;11.70;4.10;;;9.10;99.90;;;;;;4167236;28;20243;-87
2022/09/29 00:30:28;;;;;;;9.07;4.00;;;9.10;99.90;;;;;;4150854;28;20247;-88
2022/09/29 00:32:29;;;;;;;9.50;3.83;;;9.10;99.90;;;;;;4167141;28;20177;-87
2022/09/29 00:34:30;;;;;;;11.37;3.60;;;9.20;99.90;;;;;;4150703;28;20169;-87
2022/09/29 00:36:30;;;;;;;10.23;4.40;;;9.20;99.90;;;;;;4150742;28;20177;-87
2022/09/29 00:38:32;;;;;;;8.07;4.03;;;9.20;99.90;;;;;;4167116;28;20200;-87
2022/09/29 00:40:33;;;;;;;8.57;4.00;;;9.20;99.90;;;;;;4166975;28;20289;-87
2022/09/29 00:42:34;;;;;;;10.48;4.75;;;9.30;99.90;;;;;;4150398;28;20165;-87
2022/09/29 00:45:12;;;;;;;8.97;4.07;;;9.20;99.90;;;;;;4150606;28;20185;-87
2022/09/29 00:47:16;;;;;;;8.27;4.20;;;9.20;99.90;;;;;;4167049;28;20235;-87
2022/09/29 00:49:37;;;;;;;8.50;4.10;;;9.10;99.90;;;;;;4166865;28;20287;-87
2022/09/29 00:51:40;;;;;;;10.30;4.37;;;9.10;99.90;;;;;;4150209;28;20272;-87
2022/09/29 00:53:42;;;;;;;6.77;4.10;;;9.10;99.90;;;;;;4150277;28;20645;-87
2022/09/29 00:55:49;;;;;;;13.82;4.05;;;9.20;99.90;;;;;;4150282;28;20172;-87
2022/09/29 00:57:53;;;;;;;7.53;3.50;;;9.20;99.90;;;;;;4150402;28;20177;-87
2022/09/29 00:59:57;;;;;;;10.05;4.85;;;9.20;99.90;;;;;;4183290;28;20203;-87
2022/09/29 01:01:58;;;;;;;7.72;3.95;;;9.20;99.90;;;;;;4150428;28;20180;-87
2022/09/29 01:04:07;;;;;;;8.50;3.97;;;9.20;99.90;;;;;;4150239;28;20572;-88
2022/09/29 01:06:13;;;;;;;17.10;4.33;;;9.30;99.90;;;;;;4166620;28;20711;-88
2022/09/29 01:08:23;;;;;;;7.57;4.20;;;9.30;99.90;;;;;;4166377;28;20176;-88
2022/09/29 01:10:26;;;;;;;9.57;4.10;;;9.20;99.90;;;;;;4149980;28;20535;-88
2022/09/29 01:12:27;;;;;;;9.83;4.30;;;9.30;99.90;;;;;;4148902;28;20177;-87
2022/09/29 01:14:29;;;;;;;11.47;4.47;;;9.30;99.90;;;;;;4150206;28;20179;-88
2022/09/29 01:16:31;;;;;;;11.90;4.75;;;9.20;99.90;;;;;;4150203;28;20241;-87
2022/09/29 01:18:32;;;;;;;8.70;4.27;;;9.10;99.90;;;;;;4150057;28;20254;-87
2022/09/29 01:20:41;;;;;;;13.97;4.07;;;9.10;99.90;;;;;;4182544;28;20586;-88
2022/09/29 01:22:55;;;;;;;10.37;4.40;;;9.00;99.90;;;;;;4166363;28;20549;-87
2022/09/29 01:25:17;;;;;;;11.30;4.37;;;9.00;99.90;;;;;;4166219;28;20199;-88
2022/09/29 01:27:40;;;;;;;7.17;4.00;;;9.00;99.90;;;;;;4149830;28;20216;-87
2022/09/29 01:29:59;;;;;;;7.90;4.13;;;8.90;99.90;;;;;;4149970;28;20200;-88
2022/09/29 01:32:17;;;;;;;14.43;4.83;;;9.00;99.90;;;;;;4182777;28;20183;-87
2022/09/29 01:34:23;;;;;;;10.77;4.20;;;9.00;99.90;;;;;;4150077;28;20251;-87
2022/09/29 01:36:42;;;;;;;7.47;4.60;;;9.00;99.90;;;;;;4166197;28;20198;-88
2022/09/29 01:38:55;;;;;;;11.50;4.40;;;9.00;99.90;;;;;;4149868;28;20630;-88
2022/09/29 01:40:56;;;;;;;7.27;4.30;;;9.00;99.90;;;;;;4166384;28;20682;-87
2022/09/29 01:43:20;;;;;;;10.50;4.77;;;8.90;99.90;;;;;;4149606;28;20197;-88
2022/09/29 01:45:29;;;;;;;11.33;4.87;;;9.00;99.90;;;;;;4149652;28;20271;-87
2022/09/29 01:47:47;;;;;;;13.80;4.87;;;9.10;99.90;;;;;;4149660;28;20538;-88
2022/09/29 01:49:57;;;;;;;13.53;5.03;;;9.10;99.90;;;;;;4149572;28;20218;-88
2022/09/29 01:52:15;;;;;;;11.23;4.70;;;9.10;99.90;;;;;;4149651;28;20198;-88
2022/09/29 01:54:21;;;;;;;10.23;4.60;;;9.10;99.90;;;;;;4149542;28;20192;-88
2022/09/29 01:56:42;;;;;;;15.93;4.43;;;9.10;99.90;;;;;;4149634;28;20173;-87
2022/09/29 01:59:01;;;;;;;10.70;4.20;;;8.80;99.90;;;;;;4149472;28;20530;-88
2022/09/29 02:01:06;;;;;;;11.43;5.20;;;8.70;99.90;;;;;;4165786;28;20164;-88
2022/09/29 02:03:16;;;;;;;8.20;4.40;;;8.60;99.90;;;;;;4182280;28;20414;-87
2022/09/29 02:05:48;;;;;;;8.07;4.67;;;8.70;99.90;;;;;;4182214;28;20179;-88
2022/09/29 02:07:49;;;;;;;14.90;4.90;;;8.50;99.90;;;;;;4164353;28;20195;-88
2022/09/29 02:09:56;;;;;;;10.40;5.27;;;8.50;99.90;;;;;;4148602;28;20204;-87
2022/09/29 02:12:00;;;;;;;10.53;4.83;;;8.60;99.90;;;;;;4165796;28;20182;-88
2022/09/29 02:14:11;;;;;;;9.17;5.00;;;8.60;99.90;;;;;;4149171;28;20184;-87
2022/09/29 02:16:15;;;;;;;12.27;5.70;;;8.60;99.90;;;;;;4149109;28;20219;-88
2022/09/29 02:18:21;;;;;;;11.57;5.23;;;8.60;99.90;;;;;;4165681;28;20236;-88
2022/09/29 02:20:23;;;;;;;12.77;5.10;;;8.60;99.90;;;;;;4149269;28;20283;-88
2022/09/29 02:22:24;;;;;;;8.40;4.90;;;8.70;99.90;;;;;;4148936;28;20177;-88
2022/09/29 02:24:25;;;;;;;11.63;5.30;;;8.70;99.90;;;;;;4165402;28;20212;-87
2022/09/29 02:26:34;;;;;;;14.80;5.60;;;8.80;99.90;;;;;;4165564;28;20529;-87
2022/09/29 02:28:36;;;;;;;14.53;5.80;;;8.70;99.90;;;;;;4165373;28;20179;-88
2022/09/29 02:30:36;;;;;;;8.93;5.27;;;8.60;99.90;;;;;;4164997;28;20556;-88
2022/09/29 02:32:38;;;;;;;13.33;5.47;;;8.60;99.90;;;;;;4165310;28;20184;-87
2022/09/29 02:34:44;;;;;;;15.70;5.77;;;8.60;99.90;;;;;;4148854;28;20176;-87
2022/09/29 02:37:03;;;;;;;9.70;5.13;;;8.60;99.90;;;;;;4149067;28;20255;-88
2022/09/29 02:39:21;;;;;;;12.70;5.40;;;8.60;99.90;;;;;;4148938;28;20196;-88
2022/09/29 02:41:22;;;;;;;11.10;5.27;;;8.60;99.90;;;;;;4148698;28;20359;-88
2022/09/29 02:43:59;;;;;;;16.00;5.87;;;8.50;99.90;;;;;;4164974;28;20211;-88
2022/09/29 02:46:12;;;;;;;12.97;5.63;;;8.50;99.90;;;;;;4164970;28;20176;-88
2022/09/29 02:48:31;;;;;;;13.93;5.80;;;8.60;99.90;;;;;;4165059;28;20199;-88
2022/09/29 02:50:40;;;;;;;11.33;5.13;;;8.60;99.90;;;;;;4165074;28;20192;-88
2022/09/29 02:52:41;;;;;;;13.40;5.63;;;8.60;99.90;;;;;;4165191;28;20191;-87
2022/09/29 02:54:58;;;;;;;17.40;5.93;;;8.60;99.90;;;;;;4148527;28;20663;-88
2022/09/29 02:57:07;;;;;;;15.00;5.40;;;8.60;99.90;;;;;;4148504;28;20187;-87
2022/09/29 02:59:21;;;;;;;13.37;5.60;;;8.60;99.90;;;;;;4148672;28;20204;-87
2022/09/29 03:01:22;;;;;;;13.83;5.57;;;8.50;99.90;;;;;;4148616;28;20176;-88
2022/09/29 03:03:23;;;;;;;11.33;5.00;;;8.40;99.90;;;;;;4148661;28;20279;-88
2022/09/29 03:05:24;;;;;;;14.37;5.27;;;8.30;99.90;;;;;;4164824;28;20176;-89
2022/09/29 03:07:25;;;;;;;9.67;4.80;;;8.30;99.90;;;;;;4164807;28;20215;-88
2022/09/29 03:09:27;;;;;;;14.57;5.70;;;8.20;99.90;;;;;;4148289;28;20196;-88
2022/09/29 03:11:28;;;;;;;9.43;5.30;;;8.20;99.90;;;;;;4148687;28;20185;-88
2022/09/29 03:13:29;;;;;;;12.93;6.47;;;8.20;99.90;;;;;;4148473;28;20172;-88
2022/09/29 03:15:30;;;;;;;11.67;5.90;;;8.30;99.90;;;;;;4164831;28;20526;-88
2022/09/29 03:17:30;;;;;;;11.27;5.80;;;8.40;99.90;;;;;;4148324;28;20223;-88
2022/09/29 03:19:31;;;;;;;19.17;6.27;;;8.40;99.90;;;;;;4164730;28;20248;-88
2022/09/29 03:21:32;;;;;;;15.37;6.87;;;8.30;99.90;;;;;;4164761;28;20656;-87
2022/09/29 03:23:33;;;;;;;10.83;5.23;;;8.30;99.90;;;;;;4164604;28;20208;-87
2022/09/29 03:25:34;;;;;;;11.47;5.43;;;8.20;99.90;;;;;;4164556;28;20184;-87
2022/09/29 03:27:37;;;;;;;11.43;5.43;;;8.30;99.90;;;;;;4182469;22;20218;-95
2022/09/29 03:29:37;;;;;;;9.07;5.10;;;8.20;99.90;;;;;;4189747;28;20257;-96
2022/09/29 03:31:39;;;;;;;12.73;6.00;;;8.20;99.90;;;;;;4198625;28;20627;-95
2022/09/29 03:33:40;;;;;;;10.77;5.63;;;8.20;99.90;;;;;;4182138;28;20172;-95
2022/09/29 03:35:41;;;;;;;13.40;6.17;;;8.20;99.90;;;;;;4183750;28;20186;-90
2022/09/29 03:37:41;;;;;;;11.50;5.60;;;8.20;99.90;;;;;;4184918;28;20175;-93
2022/09/29 03:39:42;;;;;;;13.23;6.10;;;8.40;99.90;;;;;;4187864;28;20271;-94
2022/09/29 03:41:43;;;;;;;13.23;6.20;;;8.40;99.90;;;;;;4187377;28;20174;-90
2022/09/29 03:43:43;;;;;;;13.67;6.43;;;8.30;99.90;;;;;;4187919;28;20222;-90
2022/09/29 03:45:53;;;;;;;14.70;6.50;;;8.20;99.90;;;;;;4186802;28;20171;-90
2022/09/29 03:47:54;;;;;;;17.87;6.17;;;8.20;99.90;;;;;;4202473;28;20181;-90
2022/09/29 03:49:55;;;;;;;11.57;5.90;;;8.20;99.90;;;;;;4203095;28;20182;-89
2022/09/29 03:51:55;;;;;;;14.77;6.10;;;8.20;99.90;;;;;;4202731;28;20627;-93
2022/09/29 03:53:56;;;;;;;15.27;5.97;;;8.20;99.90;;;;;;4184640;28;20180;-92
2022/09/29 03:55:57;;;;;;;12.23;6.03;;;8.30;99.90;;;;;;4200907;28;20550;-94
2022/09/29 03:57:57;;;;;;;10.90;5.87;;;8.20;99.90;;;;;;4184899;28;20176;-95
2022/09/29 03:59:58;;;;;;;13.33;6.13;;;8.20;99.90;;;;;;4201128;28;20210;-95
2022/09/29 04:01:59;;;;;;;16.70;7.00;;;8.20;99.90;;;;;;4184295;28;20164;-95
2022/09/29 04:04:00;;;;;;;14.03;6.37;;;8.10;99.90;;;;;;4184431;28;20222;-96
2022/09/29 04:06:01;;;;;;;14.37;5.63;;;8.10;99.90;;;;;;4201294;28;20236;-90
2022/09/29 04:08:01;;;;;;;16.80;6.37;;;8.10;99.90;;;;;;4184285;28;20168;-93
2022/09/29 04:10:03;;;;;;;13.33;6.57;;;8.20;99.90;;;;;;4201069;28;20187;-89
2022/09/29 04:12:03;;;;;;;15.60;6.67;;;8.10;99.90;;;;;;4184344;28;20641;-95
2022/09/29 04:14:04;;;;;;;11.63;5.80;;;8.20;99.90;;;;;;4183835;28;20179;-96
2022/09/29 04:16:05;;;;;;;13.13;6.23;;;8.20;99.90;;;;;;4183738;28;20179;-95
2022/09/29 04:18:06;;;;;;;12.03;6.60;;;8.20;99.90;;;;;;4184155;28;20190;-95
2022/09/29 04:20:07;;;;;;;17.30;6.50;;;8.20;99.90;;;;;;4200428;28;20317;-90
2022/09/29 04:22:08;;;;;;;11.00;6.00;;;8.20;99.90;;;;;;4184142;28;20175;-95
2022/09/29 04:24:09;;;;;;;12.07;6.00;;;8.20;99.90;;;;;;4183968;28;20214;-95
2022/09/29 04:26:10;;;;;;;14.43;6.83;;;8.10;99.90;;;;;;4184140;28;20172;-96
2022/09/29 04:28:11;;;;;;;10.67;5.77;;;8.20;99.90;;;;;;4183798;28;20248;-90
2022/09/29 04:30:12;;;;;;;14.50;6.30;;;8.10;99.90;;;;;;4184100;28;20190;-90
2022/09/29 04:32:13;;;;;;;12.30;6.07;;;8.20;99.90;;;;;;4200413;28;20175;-88
2022/09/29 04:34:13;;;;;;;16.13;6.23;;;8.20;99.90;;;;;;4200302;28;20258;-90
2022/09/29 04:36:14;;;;;;;12.93;6.10;;;8.20;99.90;;;;;;4183704;28;20589;-91
2022/09/29 04:38:15;;;;;;;13.77;6.00;;;8.20;99.90;;;;;;4183408;28;20288;-91
2022/09/29 04:40:16;;;;;;;11.77;5.73;;;8.10;99.90;;;;;;4198936;28;20215;-92
2022/09/29 04:42:17;;;;;;;16.53;6.00;;;8.10;99.90;;;;;;4183226;28;20168;-89
2022/09/29 04:44:21;;;;;;;13.47;5.93;;;8.10;99.90;;;;;;4183218;28;20259;-96
2022/09/29 04:46:22;;;;;;;11.47;5.60;;;8.10;99.90;;;;;;4183011;28;20631;-89
2022/09/29 04:48:23;;;;;;;8.47;5.27;;;8.10;99.90;;;;;;4183447;28;20690;-89
2022/09/29 04:50:24;;;;;;;12.83;5.73;;;8.00;99.90;;;;;;4183268;28;20183;-90
2022/09/29 04:52:25;;;;;;;16.10;6.43;;;8.00;99.90;;;;;;4200088;28;20175;-90
2022/09/29 04:54:30;;;;;;;12.73;5.53;;;8.00;99.90;;;;;;4183552;28;20642;-90
2022/09/29 04:56:31;;;;;;;20.43;6.10;;;8.00;99.90;;;;;;4200245;28;20697;-89
2022/09/29 04:58:32;;;;;;;11.23;6.23;;;8.00;99.90;;;;;;4183519;28;20175;-96
2022/09/29 05:00:34;;;;;;;17.73;5.70;;;7.90;99.90;;;;;;4183084;28;20199;-89
2022/09/29 05:02:34;;;;;;;14.67;6.20;;;7.90;99.90;;;;;;4183216;28;20207;-89
2022/09/29 05:04:35;;;;;;;10.67;5.83;;;7.90;99.90;;;;;;4183334;28;20211;-89
2022/09/29 05:06:38;;;;;;;17.93;6.33;;;7.90;99.90;;;;;;4183227;28;20198;-95
2022/09/29 05:08:38;;;;;;;10.57;5.57;;;7.80;99.90;;;;;;4183118;28;20187;-91
2022/09/29 05:10:39;;;;;;;14.33;5.73;;;7.90;99.90;;;;;;4199722;28;20175;-95
2022/09/29 05:12:40;;;;;;;14.90;6.30;;;7.90;99.90;;;;;;4199827;28;20575;-96
2022/09/29 05:14:41;;;;;;;10.70;5.53;;;7.90;99.90;;;;;;4199621;28;20167;-91
2022/09/29 05:16:41;;;;;;;15.47;5.93;;;7.90;99.90;;;;;;4182948;28;20179;-89
2022/09/29 05:18:42;;;;;;;12.47;5.73;;;7.90;99.90;;;;;;4182998;28;20171;-90
2022/09/29 05:20:43;;;;;;;15.03;6.10;;;7.80;99.90;;;;;;4183170;28;20175;-90
2022/09/29 05:22:43;;;;;;;9.43;5.57;;;7.90;99.90;;;;;;4182899;28;20176;-95
2022/09/29 05:24:44;;;;;;;13.87;6.17;;;7.90;99.90;;;;;;4199409;28;20178;-94
2022/09/29 05:26:45;;;;;;;13.00;5.97;;;7.90;99.90;;;;;;4199770;28;20237;-94
2022/09/29 05:28:46;;;;;;;12.70;5.47;;;8.00;99.90;;;;;;4183010;28;20187;-90
2022/09/29 05:30:47;;;;;;;10.90;5.97;;;8.10;99.90;;;;;;4199954;28;20167;-95
2022/09/29 05:32:48;;;;;;;13.30;6.17;;;8.10;99.90;;;;;;4183014;28;20246;-95
2022/09/29 05:34:49;;;;;;;12.87;5.50;;;8.10;99.90;;;;;;4183112;28;20175;-90
2022/09/29 05:36:50;;;;;;;14.10;6.93;;;8.10;99.90;;;;;;4182760;28;20301;-95
2022/09/29 05:38:50;;;;;;;12.57;6.20;;;8.10;99.90;;;;;;4182674;28;20175;-91
2022/09/29 05:40:52;;;;;;;20.00;6.50;;;8.00;99.90;;;;;;4199171;28;20269;-90
2022/09/29 05:42:52;;;;;;;14.97;6.40;;;8.00;99.90;;;;;;4182834;28;20197;-95
2022/09/29 05:44:53;;;;;;;9.90;5.77;;;8.00;99.90;;;;;;4182676;28;20202;-96
2022/09/29 05:46:54;;;;;;;14.40;5.87;;;8.00;99.90;;;;;;4182622;28;20179;-94
2022/09/29 05:48:57;;;;;;;12.90;5.30;;;8.00;99.90;;;;;;4199001;28;20181;-90
2022/09/29 05:50:59;;;;;;;9.20;5.20;;;8.00;99.90;;;;;;4182542;28;20210;-91
2022/09/29 05:53:02;;;;;;;13.03;5.57;;;8.10;99.90;;;;;;4198821;28;20171;-90
2022/09/29 05:55:04;;;;;;;14.73;5.83;;;8.10;99.90;;;;;;4198882;28;20171;-96
2022/09/29 05:57:05;;;;;;;13.80;5.90;;;8.10;99.90;;;;;;4182267;28;20171;-94
2022/09/29 05:59:08;;;;;;;14.90;6.30;;;8.10;99.90;;;;;;4181732;28;20666;-89
2022/09/29 06:01:11;;;;;;;10.50;5.77;;;8.10;99.90;;;;;;4182306;28;20214;-91
2022/09/29 06:03:12;;;;;;;17.33;6.43;;;8.00;99.90;;;;;;4182250;28;20245;-90
2022/09/29 06:05:12;;;;;;;11.53;5.73;;;8.10;99.90;;;;;;4182152;28;20203;-89
2022/09/29 06:07:13;;;;;;;15.40;5.87;;;8.10;99.90;;;;;;4182539;28;20178;-93
2022/09/29 06:09:14;;;;;;;16.47;6.40;;;8.10;99.90;;;;;;4182299;28;20220;-95
2022/09/29 06:11:20;;;;;;;15.53;8.70;;;8.10;99.90;;;;;;4198884;28;20167;-89
2022/09/29 06:13:21;;;;;;;11.80;5.80;;;8.10;99.90;;;;;;4182393;28;20160;-91
2022/09/29 06:15:22;;;;;;;10.37;5.60;;;8.10;99.90;;;;;;4182232;28;20191;-90
2022/09/29 06:17:23;;;;;;;12.67;5.87;;;8.10;99.90;;;;;;4198698;28;20175;-94
2022/09/29 06:19:23;;;;;;;21.07;9.37;;;8.10;99.90;;;;;;4182370;28;20214;-91
2022/09/29 06:21:27;;;;;;;15.80;6.43;;;8.10;99.90;;;;;;4182081;28;20179;-90
2022/09/29 06:23:27;;;;;;;20.40;10.20;;;8.10;99.90;;;;;;4200345;28;20238;-90
2022/09/29 06:25:28;;;;;;;18.83;7.67;;;8.30;99.90;;;;;;4200994;28;20232;-95
2022/09/29 06:27:29;;;;;;;15.83;6.97;;;8.20;99.90;;;;;;4186713;28;20195;-95
2022/09/29 06:29:30;;;;;;;10.03;6.37;;;8.20;99.90;;;;;;4183799;28;20746;-95
2022/09/29 06:31:32;;;;;;;17.43;5.97;;;8.30;99.90;;;;;;4184761;28;20175;-93
2022/09/29 06:33:35;;;;;;;10.23;6.70;;;8.30;99.90;;;;;;4184169;28;20183;-90
2022/09/29 06:37:55;;;;;;;13.47;5.77;;;8.70;99.90;;;;;;4200121;28;20299;-90
2022/09/29 06:39:56;;;;;;;9.07;4.83;;;9.60;99.90;;;;;;4200447;28;20706;-96
2022/09/29 06:41:57;;;;;;;7.30;4.43;;;10.90;99.90;;;;;;4184247;28;20258;-90
2022/09/29 06:43:57;;;;;;;10.70;3.85;;;12.10;99.90;;;;;;4182731;28;20211;-91
2022/09/29 06:45:58;;;;;;;11.35;3.85;;;12.80;99.90;;;;;;4182754;28;20163;-90
2022/09/29 06:47:59;;;;;;;13.07;3.63;;;13.00;99.90;;;;;;4182202;28;20208;-90
2022/09/29 06:50:01;;;;;;;9.13;3.45;;;13.60;99.90;;;;;;4199134;28;20183;-91
2022/09/29 06:52:02;;;;;;;15.65;4.05;;;14.50;99.90;;;;;;4199053;28;20193;-94
2022/09/29 06:54:03;;;;;;;7.70;3.45;;;15.50;99.90;;;;;;4181762;28;20255;-91
2022/09/29 06:56:04;;;;;;;6.65;3.30;;;15.60;99.90;;;;;;4197978;28;20174;-95
2022/09/29 06:58:05;;;;;;;10.95;3.65;;;16.00;99.90;;;;;;4198117;28;20175;-94
2022/09/29 07:00:06;;;;;;;8.60;3.58;;;16.40;99.90;;;;;;4181423;28;20195;-95
2022/09/29 07:02:10;;;;;;;11.43;3.92;;;16.40;99.90;;;;;;4181414;28;20167;-91
2022/09/29 07:04:10;;;;;;;9.05;3.17;;;16.20;99.90;;;;;;4181381;28;20211;-92
2022/09/29 07:06:11;;;;;;;8.73;3.30;;;16.10;99.90;;;;;;4181380;28;20164;-91
2022/09/29 07:08:12;;;;;;;8.50;2.90;;;16.30;99.90;;;;;;4181582;28;20171;-95
2022/09/29 07:10:12;;;;;;;9.32;4.63;;;16.50;99.90;;;;;;4181303;28;20222;-91
2022/09/29 07:12:13;;;;;;;6.55;3.38;;;16.10;99.90;;;;;;4181385;28;20159;-90
2022/09/29 07:14:16;;;;;;;5.90;3.20;;;15.80;99.90;;;;;;4181335;28;20176;-91
2022/09/29 07:16:17;;;;;;;14.75;3.78;;;15.60;99.90;;;;;;4197881;28;20170;-90
2022/09/29 07:18:18;;;;;;;5.10;3.60;;;15.10;99.90;;;;;;4181140;28;20226;-90
2022/09/29 07:20:18;;;;;;;10.70;3.40;;;14.80;99.90;;;;;;4180988;28;20694;-90
2022/09/29 07:22:19;;;;;;;7.22;3.83;;;14.80;99.90;;;;;;4181429;28;20279;-95
2022/09/29 07:24:20;;;;;;;6.50;3.40;;;14.90;99.90;;;;;;4181232;28;20257;-91
2022/09/29 07:26:21;;;;;;;6.68;3.17;;;14.70;99.90;;;;;;4198155;28;20214;-90
2022/09/29 07:28:22;;;;;;;7.05;3.47;;;14.80;99.90;;;;;;4181357;28;20215;-91
2022/09/29 07:30:23;;;;;;;8.55;3.42;;;14.40;99.90;;;;;;4181254;28;20223;-91
2022/09/29 07:32:24;;;;;;;8.68;4.00;;;14.30;99.90;;;;;;4181211;28;20171;-94
2022/09/29 07:34:24;;;;;;;10.93;3.63;;;14.20;99.90;;;;;;4181216;28;20179;-90
2022/09/29 07:36:25;;;;;;;8.77;3.88;;;14.10;99.90;;;;;;4197671;28;20174;-91
2022/09/29 07:38:27;;;;;;;12.82;3.40;;;14.00;99.90;;;;;;4180896;28;20714;-90
2022/09/29 07:40:28;;;;;;;8.38;3.40;;;14.20;99.90;;;;;;4180770;28;20282;-90
2022/09/29 07:42:28;;;;;;;10.15;3.65;;;14.70;99.90;;;;;;4197447;28;20704;-91
2022/09/29 07:44:31;;;;;;;7.28;3.22;;;15.00;99.90;;;;;;4180792;28;20207;-91
2022/09/29 07:46:32;;;;;;;10.15;3.40;;;15.30;99.90;;;;;;4180964;28;20231;-91
2022/09/29 07:48:34;;;;;;;5.55;2.75;;;16.30;99.90;;;;;;4197653;28;20175;-90
2022/09/29 07:50:35;;;;;;;7.40;3.22;;;17.10;99.90;;;;;;4181018;28;20187;-91
2022/09/29 07:52:35;;;;;;;7.50;3.20;;;18.10;99.90;;;;;;4181046;28;20206;-95
2022/09/29 07:54:36;;;;;;;8.90;3.22;;;18.90;99.90;;;;;;4180827;28;20274;-90
2022/09/29 07:56:37;;;;;;;13.60;3.15;;;19.70;99.90;;;;;;4180884;28;20198;-96
2022/09/29 07:58:39;;;;;;;9.10;2.72;;;20.30;99.90;;;;;;4180710;28;20587;-91
2022/09/29 08:00:40;;;;;;;6.53;2.88;;;20.80;99.90;;;;;;4197679;28;20196;-91
2022/09/29 08:02:42;;;;;;;6.20;3.15;;;21.60;99.90;;;;;;4197488;28;20170;-91
2022/09/29 08:04:42;;;;;;;7.93;3.45;;;22.00;99.90;;;;;;4181410;28;20684;-91
2022/09/29 08:06:43;;;;;;;15.32;3.20;;;22.60;99.90;;;;;;4201577;28;20176;-96
2022/09/29 08:08:44;;;;;;;11.13;3.67;;;22.80;99.90;;;;;;4187017;28;20247;-95
2022/09/29 08:10:45;;;;;;;10.25;4.00;;;23.70;99.90;;;;;;4181536;28;20167;-90
2022/09/29 08:12:46;;;;;;;8.50;3.70;;;23.60;99.90;;;;;;4181834;28;20734;-89
2022/09/29 08:14:48;;;;;;;8.43;3.75;;;23.60;99.90;;;;;;4183580;28;20171;-92
2022/09/29 08:16:48;;;;;;;8.82;4.25;;;23.70;99.90;;;;;;4182013;28;20183;-90
2022/09/29 08:18:50;;;;;;;7.28;4.30;;;23.30;99.90;;;;;;4198813;28;20171;-91
2022/09/29 08:20:52;;;;;;;6.30;3.70;;;23.30;99.90;;;;;;4185642;28;20225;-90
2022/09/29 08:22:55;;;;;;;6.63;3.72;;;22.90;99.90;;;;;;4185798;28;20718;-91
2022/09/29 08:24:56;;;;;;;9.38;3.90;;;23.60;99.90;;;;;;4188748;28;20245;-91
2022/09/29 08:26:57;;;;;;;13.93;3.80;;;23.80;99.90;;;;;;4187108;28;20207;-89
2022/09/29 08:28:58;;;;;;;8.82;3.70;;;23.80;99.90;;;;;;4189871;28;20611;-95
2022/09/29 08:31:07;;;;;;;6.38;3.28;;;23.90;99.90;;;;;;4190954;28;20170;-95
2022/09/29 08:33:13;;;;;;;6.80;2.78;;;23.80;99.90;;;;;;4188997;28;20171;-90
2022/09/29 08:35:14;;;;;;;6.80;2.92;;;24.50;99.90;;;;;;4195295;28;20701;-90
2022/09/29 08:37:16;;;;;;;9.73;3.40;;;24.30;99.90;;;;;;4194990;28;20171;-89
2022/09/29 08:39:20;;;;;;;6.60;2.95;;;24.60;99.90;;;;;;4198890;28;20235;-90
2022/09/29 08:41:59;;;;;;;10.25;3.10;;;25.00;99.90;;;;;;4230678;28;20550;-90
2022/09/29 08:44:06;;;;;;;18.65;3.80;;;24.80;99.90;;;;;;4210448;28;20198;-92
2022/09/29 08:46:30;;;;;;;4.80;2.58;;;23.80;99.90;;;;;;4212316;28;20603;-92
2022/09/29 08:48:38;;;;;;;24.08;3.63;;;23.90;99.90;;;;;;4196244;28;20187;-91
2022/09/29 08:51:08;;;;;;;8.68;2.63;;;24.50;99.90;;;;;;4196606;28;20210;-95
2022/09/29 08:53:15;;;;;;;7.70;2.55;;;24.70;99.90;;;;;;4198993;28;20211;-94
2022/09/29 08:55:16;;;;;;;5.72;2.30;;;25.20;99.90;;;;;;4181184;28;20175;-93
2022/09/29 08:57:18;;;;;;;10.20;2.53;;;25.60;99.90;;;;;;4214409;28;20171;-95
2022/09/29 08:59:19;;;;;;;8.90;2.75;;;25.60;99.90;;;;;;4207984;28;20202;-95
2022/09/29 09:01:20;;;;;;;4.05;2.03;;;25.50;99.90;;;;;;4189712;28;20182;-94
2022/09/29 09:03:44;;;;;;;3.22;2.20;;;25.20;99.90;;;;;;4210449;28;20237;-92
2022/09/29 09:06:02;;;;;;;5.20;2.00;;;25.30;99.90;;;;;;4191742;28;20188;-94
2022/09/29 09:08:33;;;;;;;4.03;1.75;;;24.90;99.90;;;;;;4196496;28;20183;-94
2022/09/29 09:10:56;;;;;;;3.38;2.05;;;25.30;99.90;;;;;;4212851;28;20267;-91
2022/09/29 09:13:28;;;;;;;8.18;2.30;;;25.90;99.90;;;;;;4212943;28;20179;-92
2022/09/29 09:15:53;;;;;;;2.10;1.40;;;25.30;99.90;;;;;;4200067;28;20183;-96
2022/09/29 09:18:06;;;;;;;3.75;1.77;;;24.30;99.90;;;;;;4214368;28;20206;-95
2022/09/29 09:20:30;;;;;;;1.95;0.90;;;23.10;99.90;;;;;;4192682;28;20199;-95
2022/09/29 09:22:56;;;;;;;2.30;1.00;;;22.70;99.90;;;;;;4193186;28;20281;-93
2022/09/29 09:25:01;;;;;;;6.28;2.22;;;23.30;99.90;;;;;;4178767;28;20191;-94
2022/09/29 09:27:03;;;;;;;3.50;1.85;;;23.40;99.90;;;;;;4212979;28;20162;-95
2022/09/29 09:29:25;;;;;;;4.53;1.80;;;23.20;99.90;;;;;;4176343;28;20207;-94
2022/09/29 09:31:39;;;;;;;4.43;1.40;;;23.80;99.90;;;;;;4196822;28;20172;-93
2022/09/29 09:34:03;;;;;;;3.63;1.60;;;24.10;99.90;;;;;;4213756;28;20175;-93
2022/09/29 09:36:24;;;;;;;2.95;1.00;;;24.50;99.90;;;;;;4198913;28;20202;-94
2022/09/29 09:38:35;;;;;;;5.30;1.23;;;24.80;99.90;;;;;;4199056;28;20170;-92
2022/09/29 09:40:41;;;;;;;2.95;1.60;;;24.50;99.90;;;;;;4231204;28;20190;-93
2022/09/29 09:42:50;;;;;;;5.40;1.00;;;24.50;99.90;;;;;;4197518;28;20151;-91
2022/09/29 09:45:01;;;;;;;2.47;1.02;;;23.70;99.90;;;;;;4176377;28;20584;-95
2022/09/29 09:47:22;;;;;;;4.28;1.17;;;22.00;99.90;;;;;;4195768;28;20175;-92
2022/09/29 09:49:31;;;;;;;4.78;1.50;;;21.50;99.90;;;;;;4207199;28;20232;-94
2022/09/29 09:52:10;;;;;;;4.30;1.20;;;21.00;99.90;;;;;;4205077;28;20194;-91
2022/09/29 09:54:28;;;;;;;2.78;1.40;;;20.40;99.90;;;;;;4191516;28;20183;-95
2022/09/29 09:56:49;;;;;;;3.53;1.30;;;20.00;99.90;;;;;;4206368;28;20186;-95
2022/09/29 09:59:22;;;;;;;3.70;0.95;;;19.70;99.90;;;;;;4187696;28;20202;-95
2022/09/29 10:01:24;;;;;;;8.13;1.20;;;19.20;99.90;;;;;;4177574;28;20184;-94
2022/09/29 10:03:27;;;;;;;2.25;1.20;;;18.90;99.90;;;;;;4190722;28;20610;-94
2022/09/29 10:05:44;;;;;;;16.08;1.90;;;19.00;99.90;;;;;;4221007;28;20217;-94
2022/09/29 10:07:47;;;;;;;6.18;1.20;;;18.70;99.90;;;;;;4192802;28;20203;-95
2022/09/29 10:09:50;;;;;;;5.03;1.23;;;18.60;99.90;;;;;;4209965;28;20186;-95
2022/09/29 10:11:51;;;;;;;2.80;1.10;;;18.80;99.90;;;;;;4227395;28;20181;-95
2022/09/29 10:14:10;;;;;;;3.40;1.40;;;18.00;99.90;;;;;;4220724;28;20176;-92
2022/09/29 10:16:22;;;;;;;3.53;2.00;;;17.20;99.90;;;;;;4182202;28;20258;-92
2022/09/29 10:18:31;;;;;;;3.28;1.58;;;17.30;99.90;;;;;;4182171;28;20179;-91
2022/09/29 10:20:37;;;;;;;5.53;1.20;;;17.00;99.90;;;;;;4182223;28;20202;-92
2022/09/29 10:22:38;;;;;;;6.93;1.50;;;16.80;99.90;;;;;;4198626;28;20224;-93
2022/09/29 10:24:38;;;;;;;3.28;1.30;;;17.20;99.90;;;;;;4181890;28;20214;-90
2022/09/29 10:26:45;;;;;;;5.43;1.38;;;17.20;99.90;;;;;;4181899;28;20167;-90
2022/09/29 10:28:51;;;;;;;3.47;1.13;;;17.40;99.90;;;;;;4182068;28;20227;-91
2022/09/29 10:30:53;;;;;;;3.03;1.15;;;17.40;99.90;;;;;;4181913;28;20652;-91
2022/09/29 10:32:59;;;;;;;5.00;1.40;;;17.40;99.90;;;;;;4198600;28;20179;-93
2022/09/29 10:35:25;;;;;;;2.15;1.58;;;17.50;99.90;;;;;;4198258;28;20732;-89
2022/09/29 10:37:34;;;;;;;5.05;1.77;;;17.50;99.90;;;;;;4198387;28;20221;-94
2022/09/29 10:39:38;;;;;;;6.90;1.70;;;17.60;99.90;;;;;;4197979;28;20182;-94
2022/09/29 10:41:52;;;;;;;2.58;1.52;;;17.40;99.90;;;;;;4181807;28;20183;-93
2022/09/29 10:43:53;;;;;;;3.28;1.70;;;17.40;99.90;;;;;;4181345;28;20310;-94
2022/09/29 10:45:57;;;;;;;4.72;1.85;;;17.40;99.90;;;;;;4197873;28;20171;-94
2022/09/29 10:47:58;;;;;;;3.28;1.50;;;17.10;99.90;;;;;;4181795;28;20685;-94
2022/09/29 10:50:18;;;;;;;3.55;1.65;;;17.00;99.90;;;;;;4181780;28;20191;-92
2022/09/29 10:52:25;;;;;;;4.13;1.55;;;17.30;99.90;;;;;;4181656;28;20521;-94
2022/09/29 10:54:29;;;;;;;2.85;1.70;;;17.40;99.90;;;;;;4198398;28;20175;-93